sensor_id;sensor_type;location;lat;lon;timestamp;P1;durP1;ratioP1;P2;durP2;ratioP2
28848;SDS011;15981;43.292;-2.888;2023-03-01T00:01:53;2.85;;;1.60;;
28848;SDS011;15981;43.292;-2.888;2023-03-01T00:04:18;3.33;;;1.80;;
28848;SDS011;15981;43.292;-2.888;2023-03-01T00:06:44;3.17;;;1.80;;
28848;SDS011;15981;43.292;-2.888;2023-03-01T00:09:12;2.33;;;1.63;;
28848;SDS011;15981;43.292;-2.888;2023-03-01T00:11:37;2.13;;;1.75;;
28848;SDS011;15981;43.292;-2.888;2023-03-01T00:14:03;3.90;;;2.00;;
28848;SDS011;15981;43.292;-2.888;2023-03-01T00:16:36;2.30;;;1.75;;
28848;SDS011;15981;43.292;-2.888;2023-03-01T00:19:04;1.48;;;1.38;;
28848;SDS011;15981;43.292;-2.888;2023-03-01T00:21:30;2.45;;;1.77;;
28848;SDS011;15981;43.292;-2.888;2023-03-01T00:23:56;3.22;;;1.88;;
28848;SDS011;15981;43.292;-2.888;2023-03-01T00:26:22;2.45;;;1.75;;
28848;SDS011;15981;43.292;-2.888;2023-03-01T00:28:48;2.22;;;1.90;;
28848;SDS011;15981;43.292;-2.888;2023-03-01T00:31:15;3.45;;;2.00;;
28848;SDS011;15981;43.292;-2.888;2023-03-01T00:33:41;2.97;;;1.90;;
28848;SDS011;15981;43.292;-2.888;2023-03-01T00:36:07;2.33;;;1.83;;
28848;SDS011;15981;43.292;-2.888;2023-03-01T00:38:36;2.35;;;1.73;;
28848;SDS011;15981;43.292;-2.888;2023-03-01T00:41:03;1.95;;;1.75;;
28848;SDS011;15981;43.292;-2.888;2023-03-01T00:43:29;2.38;;;1.70;;
28848;SDS011;15981;43.292;-2.888;2023-03-01T00:45:55;1.98;;;1.70;;
28848;SDS011;15981;43.292;-2.888;2023-03-01T00:48:20;2.60;;;1.67;;
28848;SDS011;15981;43.292;-2.888;2023-03-01T00:50:46;2.85;;;2.30;;
28848;SDS011;15981;43.292;-2.888;2023-03-01T00:53:12;3.13;;;1.70;;
28848;SDS011;15981;43.292;-2.888;2023-03-01T00:55:37;2.03;;;1.42;;
28848;SDS011;15981;43.292;-2.888;2023-03-01T00:58:03;2.00;;;1.45;;
28848;SDS011;15981;43.292;-2.888;2023-03-01T01:00:29;2.65;;;1.83;;
28848;SDS011;15981;43.292;-2.888;2023-03-01T01:02:55;2.75;;;1.92;;
28848;SDS011;15981;43.292;-2.888;2023-03-01T01:05:20;2.17;;;1.63;;
28848;SDS011;15981;43.292;-2.888;2023-03-01T01:07:47;2.30;;;1.67;;
28848;SDS011;15981;43.292;-2.888;2023-03-01T01:10:12;2.53;;;1.73;;
28848;SDS011;15981;43.292;-2.888;2023-03-01T01:12:43;3.17;;;1.85;;
28848;SDS011;15981;43.292;-2.888;2023-03-01T01:15:09;3.95;;;2.05;;
28848;SDS011;15981;43.292;-2.888;2023-03-01T01:17:37;2.20;;;1.85;;
28848;SDS011;15981;43.292;-2.888;2023-03-01T01:20:03;3.70;;;1.95;;
28848;SDS011;15981;43.292;-2.888;2023-03-01T01:22:29;2.50;;;1.67;;
28848;SDS011;15981;43.292;-2.888;2023-03-01T01:24:55;2.92;;;2.00;;
28848;SDS011;15981;43.292;-2.888;2023-03-01T01:27:20;2.45;;;1.90;;
28848;SDS011;15981;43.292;-2.888;2023-03-01T01:29:46;2.00;;;1.77;;
28848;SDS011;15981;43.292;-2.888;2023-03-01T01:32:12;2.33;;;1.92;;
28848;SDS011;15981;43.292;-2.888;2023-03-01T01:34:38;6.20;;;2.10;;
28848;SDS011;15981;43.292;-2.888;2023-03-01T01:37:03;2.78;;;2.03;;
28848;SDS011;15981;43.292;-2.888;2023-03-01T01:39:33;3.22;;;1.90;;
28848;SDS011;15981;43.292;-2.888;2023-03-01T01:42:00;3.00;;;1.80;;
28848;SDS011;15981;43.292;-2.888;2023-03-01T01:44:26;2.85;;;2.03;;
28848;SDS011;15981;43.292;-2.888;2023-03-01T01:46:57;2.38;;;2.03;;
28848;SDS011;15981;43.292;-2.888;2023-03-01T01:49:25;2.67;;;1.85;;
28848;SDS011;15981;43.292;-2.888;2023-03-01T01:51:55;2.25;;;2.00;;
28848;SDS011;15981;43.292;-2.888;2023-03-01T01:54:24;2.00;;;1.83;;
28848;SDS011;15981;43.292;-2.888;2023-03-01T01:57:00;2.00;;;1.73;;
28848;SDS011;15981;43.292;-2.888;2023-03-01T01:59:27;3.03;;;2.25;;
28848;SDS011;15981;43.292;-2.888;2023-03-01T02:01:54;1.88;;;1.50;;
28848;SDS011;15981;43.292;-2.888;2023-03-01T02:04:20;2.75;;;1.70;;
28848;SDS011;15981;43.292;-2.888;2023-03-01T02:06:48;2.35;;;1.98;;
28848;SDS011;15981;43.292;-2.888;2023-03-01T02:09:16;2.63;;;1.75;;
28848;SDS011;15981;43.292;-2.888;2023-03-01T02:11:43;3.72;;;2.42;;
28848;SDS011;15981;43.292;-2.888;2023-03-01T02:14:10;2.70;;;2.08;;
28848;SDS011;15981;43.292;-2.888;2023-03-01T02:16:35;3.40;;;2.03;;
28848;SDS011;15981;43.292;-2.888;2023-03-01T02:19:01;3.65;;;2.35;;
28848;SDS011;15981;43.292;-2.888;2023-03-01T02:21:51;2.63;;;1.88;;
28848;SDS011;15981;43.292;-2.888;2023-03-01T02:24:27;3.00;;;1.92;;
28848;SDS011;15981;43.292;-2.888;2023-03-01T02:26:56;2.38;;;1.92;;
28848;SDS011;15981;43.292;-2.888;2023-03-01T02:29:23;2.50;;;2.03;;
28848;SDS011;15981;43.292;-2.888;2023-03-01T02:31:49;2.92;;;1.77;;
28848;SDS011;15981;43.292;-2.888;2023-03-01T02:34:17;3.15;;;2.17;;
28848;SDS011;15981;43.292;-2.888;2023-03-01T02:36:48;3.17;;;2.15;;
28848;SDS011;15981;43.292;-2.888;2023-03-01T02:39:17;2.17;;;1.92;;
28848;SDS011;15981;43.292;-2.888;2023-03-01T02:41:46;2.60;;;1.90;;
28848;SDS011;15981;43.292;-2.888;2023-03-01T02:44:13;3.25;;;1.88;;
28848;SDS011;15981;43.292;-2.888;2023-03-01T02:46:52;2.72;;;1.85;;
28848;SDS011;15981;43.292;-2.888;2023-03-01T02:49:23;2.20;;;1.70;;
28848;SDS011;15981;43.292;-2.888;2023-03-01T02:52:13;2.65;;;1.80;;
28848;SDS011;15981;43.292;-2.888;2023-03-01T02:54:46;2.50;;;2.00;;
28848;SDS011;15981;43.292;-2.888;2023-03-01T02:57:13;2.45;;;1.67;;
28848;SDS011;15981;43.292;-2.888;2023-03-01T02:59:39;1.90;;;1.60;;
28848;SDS011;15981;43.292;-2.888;2023-03-01T03:02:05;3.50;;;2.33;;
28848;SDS011;15981;43.292;-2.888;2023-03-01T03:04:31;4.07;;;2.10;;
28848;SDS011;15981;43.292;-2.888;2023-03-01T03:06:57;2.17;;;1.58;;
28848;SDS011;15981;43.292;-2.888;2023-03-01T03:09:23;2.33;;;1.67;;
28848;SDS011;15981;43.292;-2.888;2023-03-01T03:11:48;2.97;;;1.90;;
28848;SDS011;15981;43.292;-2.888;2023-03-01T03:14:15;3.10;;;2.20;;
28848;SDS011;15981;43.292;-2.888;2023-03-01T03:16:45;2.63;;;1.70;;
28848;SDS011;15981;43.292;-2.888;2023-03-01T03:19:11;2.58;;;1.90;;
28848;SDS011;15981;43.292;-2.888;2023-03-01T03:21:37;2.40;;;1.73;;
28848;SDS011;15981;43.292;-2.888;2023-03-01T03:24:03;2.22;;;1.80;;
28848;SDS011;15981;43.292;-2.888;2023-03-01T03:26:29;2.15;;;1.65;;
28848;SDS011;15981;43.292;-2.888;2023-03-01T03:28:55;2.63;;;1.70;;
28848;SDS011;15981;43.292;-2.888;2023-03-01T03:31:22;3.20;;;2.30;;
28848;SDS011;15981;43.292;-2.888;2023-03-01T03:33:48;3.65;;;1.95;;
28848;SDS011;15981;43.292;-2.888;2023-03-01T03:36:17;2.45;;;2.00;;
28848;SDS011;15981;43.292;-2.888;2023-03-01T03:38:43;4.30;;;1.92;;
28848;SDS011;15981;43.292;-2.888;2023-03-01T03:41:11;2.47;;;1.70;;
28848;SDS011;15981;43.292;-2.888;2023-03-01T03:43:38;2.55;;;2.03;;
28848;SDS011;15981;43.292;-2.888;2023-03-01T03:46:04;2.63;;;1.70;;
28848;SDS011;15981;43.292;-2.888;2023-03-01T03:48:33;2.58;;;1.85;;
28848;SDS011;15981;43.292;-2.888;2023-03-01T03:50:59;3.53;;;2.15;;
28848;SDS011;15981;43.292;-2.888;2023-03-01T03:53:25;3.25;;;2.03;;
28848;SDS011;15981;43.292;-2.888;2023-03-01T03:55:51;2.90;;;1.80;;
28848;SDS011;15981;43.292;-2.888;2023-03-01T03:58:18;2.25;;;1.77;;
28848;SDS011;15981;43.292;-2.888;2023-03-01T04:00:45;3.08;;;1.90;;
28848;SDS011;15981;43.292;-2.888;2023-03-01T04:03:13;2.30;;;1.75;;
28848;SDS011;15981;43.292;-2.888;2023-03-01T04:05:39;3.80;;;1.83;;
28848;SDS011;15981;43.292;-2.888;2023-03-01T04:08:06;2.80;;;1.83;;
28848;SDS011;15981;43.292;-2.888;2023-03-01T04:10:38;2.10;;;1.90;;
28848;SDS011;15981;43.292;-2.888;2023-03-01T04:13:05;2.28;;;1.83;;
28848;SDS011;15981;43.292;-2.888;2023-03-01T04:15:31;2.63;;;2.03;;
28848;SDS011;15981;43.292;-2.888;2023-03-01T04:17:58;3.17;;;2.03;;
28848;SDS011;15981;43.292;-2.888;2023-03-01T04:20:25;2.60;;;1.85;;
28848;SDS011;15981;43.292;-2.888;2023-03-01T04:25:17;3.35;;;2.00;;
28848;SDS011;15981;43.292;-2.888;2023-03-01T04:27:43;2.90;;;2.05;;
28848;SDS011;15981;43.292;-2.888;2023-03-01T04:30:09;2.38;;;1.70;;
28848;SDS011;15981;43.292;-2.888;2023-03-01T04:32:35;3.80;;;1.95;;
28848;SDS011;15981;43.292;-2.888;2023-03-01T04:35:01;2.47;;;1.75;;
28848;SDS011;15981;43.292;-2.888;2023-03-01T04:37:26;2.40;;;1.73;;
28848;SDS011;15981;43.292;-2.888;2023-03-01T04:39:52;2.70;;;1.80;;
28848;SDS011;15981;43.292;-2.888;2023-03-01T04:42:18;2.55;;;1.80;;
28848;SDS011;15981;43.292;-2.888;2023-03-01T04:44:44;2.75;;;2.05;;
28848;SDS011;15981;43.292;-2.888;2023-03-01T04:47:10;3.05;;;2.03;;
28848;SDS011;15981;43.292;-2.888;2023-03-01T04:49:36;2.92;;;2.13;;
28848;SDS011;15981;43.292;-2.888;2023-03-01T04:52:02;3.70;;;2.38;;
28848;SDS011;15981;43.292;-2.888;2023-03-01T04:54:29;2.25;;;2.03;;
28848;SDS011;15981;43.292;-2.888;2023-03-01T04:56:55;3.15;;;2.28;;
28848;SDS011;15981;43.292;-2.888;2023-03-01T04:59:20;2.67;;;1.80;;
28848;SDS011;15981;43.292;-2.888;2023-03-01T05:01:49;2.63;;;1.77;;
28848;SDS011;15981;43.292;-2.888;2023-03-01T05:04:15;2.50;;;1.63;;
28848;SDS011;15981;43.292;-2.888;2023-03-01T05:06:41;3.80;;;2.03;;
28848;SDS011;15981;43.292;-2.888;2023-03-01T05:09:07;2.92;;;1.90;;
28848;SDS011;15981;43.292;-2.888;2023-03-01T05:11:33;2.50;;;2.00;;
28848;SDS011;15981;43.292;-2.888;2023-03-01T05:14:01;3.33;;;2.08;;
28848;SDS011;15981;43.292;-2.888;2023-03-01T05:16:27;3.20;;;1.67;;
28848;SDS011;15981;43.292;-2.888;2023-03-01T05:18:53;2.40;;;1.67;;
28848;SDS011;15981;43.292;-2.888;2023-03-01T05:21:20;2.33;;;1.65;;
28848;SDS011;15981;43.292;-2.888;2023-03-01T05:23:46;2.45;;;1.88;;
28848;SDS011;15981;43.292;-2.888;2023-03-01T05:26:13;2.58;;;1.70;;
28848;SDS011;15981;43.292;-2.888;2023-03-01T05:28:39;2.60;;;1.70;;
28848;SDS011;15981;43.292;-2.888;2023-03-01T05:31:05;2.75;;;2.00;;
28848;SDS011;15981;43.292;-2.888;2023-03-01T05:33:38;2.78;;;2.20;;
28848;SDS011;15981;43.292;-2.888;2023-03-01T05:36:04;2.78;;;1.92;;
28848;SDS011;15981;43.292;-2.888;2023-03-01T05:38:30;3.15;;;2.10;;
28848;SDS011;15981;43.292;-2.888;2023-03-01T05:40:56;2.58;;;2.10;;
28848;SDS011;15981;43.292;-2.888;2023-03-01T05:43:22;3.03;;;2.05;;
28848;SDS011;15981;43.292;-2.888;2023-03-01T05:45:48;2.63;;;1.98;;
28848;SDS011;15981;43.292;-2.888;2023-03-01T05:48:14;2.50;;;1.95;;
28848;SDS011;15981;43.292;-2.888;2023-03-01T05:50:41;2.72;;;1.90;;
28848;SDS011;15981;43.292;-2.888;2023-03-01T05:53:09;3.55;;;2.20;;
28848;SDS011;15981;43.292;-2.888;2023-03-01T05:55:36;3.17;;;2.00;;
28848;SDS011;15981;43.292;-2.888;2023-03-01T05:58:03;3.08;;;1.75;;
28848;SDS011;15981;43.292;-2.888;2023-03-01T06:00:30;3.28;;;2.13;;
28848;SDS011;15981;43.292;-2.888;2023-03-01T06:02:57;3.22;;;2.08;;
28848;SDS011;15981;43.292;-2.888;2023-03-01T06:05:23;2.65;;;1.98;;
28848;SDS011;15981;43.292;-2.888;2023-03-01T06:07:49;3.92;;;2.28;;
28848;SDS011;15981;43.292;-2.888;2023-03-01T06:10:15;3.08;;;1.90;;
28848;SDS011;15981;43.292;-2.888;2023-03-01T06:12:42;3.00;;;1.80;;
28848;SDS011;15981;43.292;-2.888;2023-03-01T06:15:09;2.92;;;2.00;;
28848;SDS011;15981;43.292;-2.888;2023-03-01T06:17:36;2.20;;;1.80;;
28848;SDS011;15981;43.292;-2.888;2023-03-01T06:20:24;2.25;;;1.90;;
28848;SDS011;15981;43.292;-2.888;2023-03-01T06:22:49;3.25;;;2.08;;
28848;SDS011;15981;43.292;-2.888;2023-03-01T06:25:16;2.47;;;1.77;;
28848;SDS011;15981;43.292;-2.888;2023-03-01T06:27:42;2.78;;;1.98;;
28848;SDS011;15981;43.292;-2.888;2023-03-01T06:30:09;2.35;;;1.83;;
28848;SDS011;15981;43.292;-2.888;2023-03-01T06:32:36;2.63;;;1.90;;
28848;SDS011;15981;43.292;-2.888;2023-03-01T06:35:03;3.83;;;2.10;;
28848;SDS011;15981;43.292;-2.888;2023-03-01T06:37:28;2.55;;;1.75;;
28848;SDS011;15981;43.292;-2.888;2023-03-01T06:39:54;3.78;;;2.20;;
28848;SDS011;15981;43.292;-2.888;2023-03-01T06:42:20;3.55;;;2.13;;
28848;SDS011;15981;43.292;-2.888;2023-03-01T06:44:46;3.25;;;2.35;;
28848;SDS011;15981;43.292;-2.888;2023-03-01T06:47:12;3.65;;;1.98;;
28848;SDS011;15981;43.292;-2.888;2023-03-01T06:49:38;2.70;;;1.80;;
28848;SDS011;15981;43.292;-2.888;2023-03-01T06:52:03;2.15;;;1.83;;
28848;SDS011;15981;43.292;-2.888;2023-03-01T06:54:29;2.58;;;1.77;;
28848;SDS011;15981;43.292;-2.888;2023-03-01T06:56:55;3.85;;;2.33;;
28848;SDS011;15981;43.292;-2.888;2023-03-01T06:59:20;2.92;;;2.03;;
28848;SDS011;15981;43.292;-2.888;2023-03-01T07:01:46;2.75;;;2.13;;
28848;SDS011;15981;43.292;-2.888;2023-03-01T07:04:12;4.28;;;2.00;;
28848;SDS011;15981;43.292;-2.888;2023-03-01T07:06:38;3.25;;;1.98;;
28848;SDS011;15981;43.292;-2.888;2023-03-01T07:09:04;3.25;;;2.08;;
28848;SDS011;15981;43.292;-2.888;2023-03-01T07:11:30;2.38;;;2.00;;
28848;SDS011;15981;43.292;-2.888;2023-03-01T07:13:56;3.35;;;2.00;;
28848;SDS011;15981;43.292;-2.888;2023-03-01T07:16:22;2.75;;;2.10;;
28848;SDS011;15981;43.292;-2.888;2023-03-01T07:18:47;3.65;;;2.28;;
28848;SDS011;15981;43.292;-2.888;2023-03-01T07:21:14;2.22;;;1.90;;
28848;SDS011;15981;43.292;-2.888;2023-03-01T07:23:40;3.15;;;2.05;;
28848;SDS011;15981;43.292;-2.888;2023-03-01T07:26:05;3.45;;;2.40;;
28848;SDS011;15981;43.292;-2.888;2023-03-01T07:28:31;3.80;;;2.22;;
28848;SDS011;15981;43.292;-2.888;2023-03-01T07:31:02;3.03;;;2.10;;
28848;SDS011;15981;43.292;-2.888;2023-03-01T07:33:28;3.85;;;2.08;;
28848;SDS011;15981;43.292;-2.888;2023-03-01T07:36:00;2.88;;;2.00;;
28848;SDS011;15981;43.292;-2.888;2023-03-01T07:38:27;3.20;;;2.00;;
28848;SDS011;15981;43.292;-2.888;2023-03-01T07:40:53;3.63;;;1.80;;
28848;SDS011;15981;43.292;-2.888;2023-03-01T07:43:19;2.95;;;2.15;;
28848;SDS011;15981;43.292;-2.888;2023-03-01T07:45:46;3.22;;;2.30;;
28848;SDS011;15981;43.292;-2.888;2023-03-01T07:48:11;5.65;;;2.58;;
28848;SDS011;15981;43.292;-2.888;2023-03-01T07:50:37;3.10;;;2.20;;
28848;SDS011;15981;43.292;-2.888;2023-03-01T07:53:03;3.47;;;2.20;;
28848;SDS011;15981;43.292;-2.888;2023-03-01T07:55:30;3.63;;;2.30;;
28848;SDS011;15981;43.292;-2.888;2023-03-01T07:57:55;2.42;;;1.90;;
28848;SDS011;15981;43.292;-2.888;2023-03-01T08:00:21;2.42;;;2.22;;
28848;SDS011;15981;43.292;-2.888;2023-03-01T08:02:47;3.35;;;2.40;;
28848;SDS011;15981;43.292;-2.888;2023-03-01T08:05:13;3.28;;;2.10;;
28848;SDS011;15981;43.292;-2.888;2023-03-01T08:07:39;7.28;;;2.40;;
28848;SDS011;15981;43.292;-2.888;2023-03-01T08:10:04;3.53;;;2.25;;
28848;SDS011;15981;43.292;-2.888;2023-03-01T08:12:30;4.20;;;2.22;;
28848;SDS011;15981;43.292;-2.888;2023-03-01T08:14:56;3.70;;;2.13;;
28848;SDS011;15981;43.292;-2.888;2023-03-01T08:17:22;3.47;;;2.47;;
28848;SDS011;15981;43.292;-2.888;2023-03-01T08:19:48;3.53;;;2.78;;
28848;SDS011;15981;43.292;-2.888;2023-03-01T08:22:14;3.85;;;2.63;;
28848;SDS011;15981;43.292;-2.888;2023-03-01T08:24:39;3.97;;;2.70;;
28848;SDS011;15981;43.292;-2.888;2023-03-01T08:27:05;4.70;;;3.35;;
28848;SDS011;15981;43.292;-2.888;2023-03-01T08:29:32;4.47;;;3.17;;
28848;SDS011;15981;43.292;-2.888;2023-03-01T08:31:57;4.35;;;3.08;;
28848;SDS011;15981;43.292;-2.888;2023-03-01T08:34:23;5.10;;;2.90;;
28848;SDS011;15981;43.292;-2.888;2023-03-01T08:36:49;4.57;;;3.00;;
28848;SDS011;15981;43.292;-2.888;2023-03-01T08:39:17;5.18;;;3.17;;
28848;SDS011;15981;43.292;-2.888;2023-03-01T08:41:44;3.88;;;3.05;;
28848;SDS011;15981;43.292;-2.888;2023-03-01T08:44:11;4.47;;;3.35;;
28848;SDS011;15981;43.292;-2.888;2023-03-01T08:46:38;9.30;;;3.70;;
28848;SDS011;15981;43.292;-2.888;2023-03-01T08:49:07;5.45;;;3.33;;
28848;SDS011;15981;43.292;-2.888;2023-03-01T08:51:33;6.97;;;3.90;;
28848;SDS011;15981;43.292;-2.888;2023-03-01T08:54:09;5.20;;;4.05;;
28848;SDS011;15981;43.292;-2.888;2023-03-01T08:56:36;6.90;;;4.35;;
28848;SDS011;15981;43.292;-2.888;2023-03-01T08:59:02;5.55;;;3.92;;
28848;SDS011;15981;43.292;-2.888;2023-03-01T09:01:27;5.47;;;4.15;;
28848;SDS011;15981;43.292;-2.888;2023-03-01T09:03:53;10.77;;;4.80;;
28848;SDS011;15981;43.292;-2.888;2023-03-01T09:06:19;7.88;;;3.72;;
28848;SDS011;15981;43.292;-2.888;2023-03-01T09:08:46;5.55;;;3.75;;
28848;SDS011;15981;43.292;-2.888;2023-03-01T09:11:13;4.85;;;3.40;;
28848;SDS011;15981;43.292;-2.888;2023-03-01T09:13:40;5.20;;;3.65;;
28848;SDS011;15981;43.292;-2.888;2023-03-01T09:16:07;4.97;;;2.85;;
28848;SDS011;15981;43.292;-2.888;2023-03-01T09:18:33;5.97;;;3.38;;
28848;SDS011;15981;43.292;-2.888;2023-03-01T09:21:06;4.70;;;3.08;;
28848;SDS011;15981;43.292;-2.888;2023-03-01T09:23:34;4.97;;;3.40;;
28848;SDS011;15981;43.292;-2.888;2023-03-01T09:26:00;7.40;;;3.22;;
28848;SDS011;15981;43.292;-2.888;2023-03-01T09:28:26;5.80;;;3.72;;
28848;SDS011;15981;43.292;-2.888;2023-03-01T09:30:51;9.38;;;4.15;;
28848;SDS011;15981;43.292;-2.888;2023-03-01T09:33:17;7.00;;;4.00;;
28848;SDS011;15981;43.292;-2.888;2023-03-01T09:35:43;6.75;;;3.53;;
28848;SDS011;15981;43.292;-2.888;2023-03-01T09:38:12;4.55;;;3.05;;
28848;SDS011;15981;43.292;-2.888;2023-03-01T09:40:42;7.40;;;3.50;;
28848;SDS011;15981;43.292;-2.888;2023-03-01T09:43:36;4.80;;;3.30;;
28848;SDS011;15981;43.292;-2.888;2023-03-01T09:45:55;4.63;;;2.78;;
28848;SDS011;15981;43.292;-2.888;2023-03-01T09:48:26;6.35;;;3.40;;
28848;SDS011;15981;43.292;-2.888;2023-03-01T09:50:52;3.35;;;2.70;;
28848;SDS011;15981;43.292;-2.888;2023-03-01T09:53:31;4.72;;;2.80;;
28848;SDS011;15981;43.292;-2.888;2023-03-01T09:56:15;16.38;;;5.60;;
28848;SDS011;15981;43.292;-2.888;2023-03-01T09:58:48;10.02;;;4.80;;
28848;SDS011;15981;43.292;-2.888;2023-03-01T10:06:22;9.60;;;3.45;;
28848;SDS011;15981;43.292;-2.888;2023-03-01T10:08:53;6.07;;;3.35;;
28848;SDS011;15981;43.292;-2.888;2023-03-01T10:11:27;6.35;;;3.10;;
28848;SDS011;15981;43.292;-2.888;2023-03-01T10:13:59;5.78;;;2.95;;
28848;SDS011;15981;43.292;-2.888;2023-03-01T10:18:57;5.18;;;3.30;;
28848;SDS011;15981;43.292;-2.888;2023-03-01T10:21:25;6.97;;;2.83;;
28848;SDS011;15981;43.292;-2.888;2023-03-01T10:23:52;5.47;;;2.47;;
28848;SDS011;15981;43.292;-2.888;2023-03-01T10:29:01;4.25;;;2.55;;
28848;SDS011;15981;43.292;-2.888;2023-03-01T10:31:38;5.78;;;2.72;;
28848;SDS011;15981;43.292;-2.888;2023-03-01T10:36:42;6.25;;;2.67;;
28848;SDS011;15981;43.292;-2.888;2023-03-01T10:39:15;4.32;;;2.55;;
28848;SDS011;15981;43.292;-2.888;2023-03-01T10:41:52;3.47;;;2.53;;
28848;SDS011;15981;43.292;-2.888;2023-03-01T10:47:03;4.18;;;2.65;;
28848;SDS011;15981;43.292;-2.888;2023-03-01T10:49:29;3.88;;;2.20;;
28848;SDS011;15981;43.292;-2.888;2023-03-01T10:51:55;4.97;;;2.17;;
28848;SDS011;15981;43.292;-2.888;2023-03-01T10:54:24;3.95;;;2.42;;
28848;SDS011;15981;43.292;-2.888;2023-03-01T10:56:51;3.15;;;2.35;;
28848;SDS011;15981;43.292;-2.888;2023-03-01T10:59:29;3.10;;;2.33;;
28848;SDS011;15981;43.292;-2.888;2023-03-01T11:04:39;2.88;;;2.13;;
28848;SDS011;15981;43.292;-2.888;2023-03-01T11:07:07;4.20;;;2.35;;
28848;SDS011;15981;43.292;-2.888;2023-03-01T11:09:33;5.40;;;2.75;;
28848;SDS011;15981;43.292;-2.888;2023-03-01T11:12:11;10.07;;;2.10;;
28848;SDS011;15981;43.292;-2.888;2023-03-01T11:14:39;3.40;;;2.25;;
28848;SDS011;15981;43.292;-2.888;2023-03-01T11:17:30;4.97;;;2.65;;
28848;SDS011;15981;43.292;-2.888;2023-03-01T11:22:44;4.90;;;2.08;;
28848;SDS011;15981;43.292;-2.888;2023-03-01T11:25:11;3.60;;;2.20;;
28848;SDS011;15981;43.292;-2.888;2023-03-01T11:27:40;4.57;;;2.30;;
28848;SDS011;15981;43.292;-2.888;2023-03-01T11:33:12;2.95;;;2.00;;
28848;SDS011;15981;43.292;-2.888;2023-03-01T11:35:22;3.10;;;1.92;;
28848;SDS011;15981;43.292;-2.888;2023-03-01T11:37:58;5.25;;;2.30;;
28848;SDS011;15981;43.292;-2.888;2023-03-01T11:40:26;3.97;;;2.15;;
28848;SDS011;15981;43.292;-2.888;2023-03-01T11:45:18;2.40;;;2.00;;
28848;SDS011;15981;43.292;-2.888;2023-03-01T11:48:04;1.80;;;1.70;;
28848;SDS011;15981;43.292;-2.888;2023-03-01T11:50:47;8.07;;;2.10;;
28848;SDS011;15981;43.292;-2.888;2023-03-01T12:01:40;2.47;;;1.90;;
28848;SDS011;15981;43.292;-2.888;2023-03-01T12:06:50;2.55;;;2.00;;
28848;SDS011;15981;43.292;-2.888;2023-03-01T12:09:38;4.45;;;2.95;;
28848;SDS011;15981;43.292;-2.888;2023-03-01T12:22:20;374.92;;;236.38;;
28848;SDS011;15981;43.292;-2.888;2023-03-01T12:27:46;317.25;;;187.73;;
28848;SDS011;15981;43.292;-2.888;2023-03-01T12:36:05;263.15;;;153.45;;
28848;SDS011;15981;43.292;-2.888;2023-03-01T12:41:08;230.60;;;141.68;;
28848;SDS011;15981;43.292;-2.888;2023-03-01T12:43:58;255.40;;;140.70;;
28848;SDS011;15981;43.292;-2.888;2023-03-01T12:51:22;203.60;;;124.57;;
28848;SDS011;15981;43.292;-2.888;2023-03-01T12:53:51;198.10;;;119.30;;
28848;SDS011;15981;43.292;-2.888;2023-03-01T12:56:20;194.40;;;117.75;;
28848;SDS011;15981;43.292;-2.888;2023-03-01T12:59:02;199.52;;;122.57;;
28848;SDS011;15981;43.292;-2.888;2023-03-01T13:01:47;229.43;;;142.38;;
28848;SDS011;15981;43.292;-2.888;2023-03-01T13:04:16;233.75;;;151.60;;
28848;SDS011;15981;43.292;-2.888;2023-03-01T13:06:44;230.05;;;148.95;;
28848;SDS011;15981;43.292;-2.888;2023-03-01T13:09:23;218.02;;;136.27;;
28848;SDS011;15981;43.292;-2.888;2023-03-01T13:11:53;224.32;;;136.90;;
28848;SDS011;15981;43.292;-2.888;2023-03-01T13:16:50;204.45;;;126.47;;
28848;SDS011;15981;43.292;-2.888;2023-03-01T13:19:18;202.25;;;125.80;;
28848;SDS011;15981;43.292;-2.888;2023-03-01T13:21:44;192.10;;;123.93;;
28848;SDS011;15981;43.292;-2.888;2023-03-01T13:29:49;171.10;;;112.40;;
28848;SDS011;15981;43.292;-2.888;2023-03-01T13:32:25;182.25;;;112.00;;
28848;SDS011;15981;43.292;-2.888;2023-03-01T13:34:53;175.90;;;105.90;;
28848;SDS011;15981;43.292;-2.888;2023-03-01T13:37:24;185.82;;;107.95;;
28848;SDS011;15981;43.292;-2.888;2023-03-01T13:39:51;170.00;;;104.97;;
28848;SDS011;15981;43.292;-2.888;2023-03-01T13:42:31;161.95;;;102.22;;
28848;SDS011;15981;43.292;-2.888;2023-03-01T13:44:57;159.75;;;101.20;;
28848;SDS011;15981;43.292;-2.888;2023-03-01T13:47:23;154.82;;;97.47;;
28848;SDS011;15981;43.292;-2.888;2023-03-01T13:49:59;157.60;;;96.50;;
28848;SDS011;15981;43.292;-2.888;2023-03-01T13:54:51;144.32;;;89.88;;
28848;SDS011;15981;43.292;-2.888;2023-03-01T13:57:21;143.88;;;87.45;;
28848;SDS011;15981;43.292;-2.888;2023-03-01T13:59:49;136.32;;;87.43;;
28848;SDS011;15981;43.292;-2.888;2023-03-01T14:02:14;138.90;;;83.55;;
28848;SDS011;15981;43.292;-2.888;2023-03-01T14:04:40;177.52;;;102.65;;
28848;SDS011;15981;43.292;-2.888;2023-03-01T14:09:35;192.68;;;113.57;;
28848;SDS011;15981;43.292;-2.888;2023-03-01T14:12:26;184.75;;;106.85;;
28848;SDS011;15981;43.292;-2.888;2023-03-01T14:18:22;179.00;;;106.55;;
28848;SDS011;15981;43.292;-2.888;2023-03-01T14:20:41;174.15;;;101.60;;
28848;SDS011;15981;43.292;-2.888;2023-03-01T14:23:11;160.38;;;97.78;;
28848;SDS011;15981;43.292;-2.888;2023-03-01T14:25:38;161.82;;;98.05;;
28848;SDS011;15981;43.292;-2.888;2023-03-01T14:28:12;155.40;;;94.50;;
28848;SDS011;15981;43.292;-2.888;2023-03-01T14:30:40;156.75;;;93.00;;
28848;SDS011;15981;43.292;-2.888;2023-03-01T14:33:17;150.23;;;89.88;;
28848;SDS011;15981;43.292;-2.888;2023-03-01T14:35:51;141.55;;;82.80;;
28848;SDS011;15981;43.292;-2.888;2023-03-01T14:38:21;144.70;;;83.63;;
28848;SDS011;15981;43.292;-2.888;2023-03-01T14:40:47;139.38;;;85.22;;
28848;SDS011;15981;43.292;-2.888;2023-03-01T14:43:16;134.35;;;79.90;;
28848;SDS011;15981;43.292;-2.888;2023-03-01T14:45:48;134.52;;;80.47;;
28848;SDS011;15981;43.292;-2.888;2023-03-01T14:48:14;126.05;;;76.07;;
28848;SDS011;15981;43.292;-2.888;2023-03-01T14:50:41;127.75;;;77.40;;
28848;SDS011;15981;43.292;-2.888;2023-03-01T14:53:07;139.07;;;75.25;;
28848;SDS011;15981;43.292;-2.888;2023-03-01T14:55:41;115.22;;;69.00;;
28848;SDS011;15981;43.292;-2.888;2023-03-01T14:58:12;118.13;;;66.63;;
28848;SDS011;15981;43.292;-2.888;2023-03-01T15:00:38;115.82;;;66.43;;
28848;SDS011;15981;43.292;-2.888;2023-03-01T15:03:08;107.93;;;61.50;;
28848;SDS011;15981;43.292;-2.888;2023-03-01T15:05:39;105.63;;;59.00;;
28848;SDS011;15981;43.292;-2.888;2023-03-01T15:08:05;103.20;;;61.28;;
28848;SDS011;15981;43.292;-2.888;2023-03-01T15:10:32;104.55;;;59.78;;
28848;SDS011;15981;43.292;-2.888;2023-03-01T15:13:41;99.20;;;58.47;;
28848;SDS011;15981;43.292;-2.888;2023-03-01T15:15:48;95.88;;;57.00;;
28848;SDS011;15981;43.292;-2.888;2023-03-01T15:18:16;91.35;;;52.88;;
28848;SDS011;15981;43.292;-2.888;2023-03-01T15:20:43;89.60;;;53.58;;
28848;SDS011;15981;43.292;-2.888;2023-03-01T15:25:47;84.28;;;51.47;;
28848;SDS011;15981;43.292;-2.888;2023-03-01T15:28:28;76.15;;;48.13;;
28848;SDS011;15981;43.292;-2.888;2023-03-01T15:30:55;79.97;;;47.28;;
28848;SDS011;15981;43.292;-2.888;2023-03-01T15:35:48;78.20;;;45.42;;
28848;SDS011;15981;43.292;-2.888;2023-03-01T15:38:35;72.43;;;44.03;;
28848;SDS011;15981;43.292;-2.888;2023-03-01T15:41:04;77.95;;;44.88;;
28848;SDS011;15981;43.292;-2.888;2023-03-01T15:46:32;60.92;;;37.47;;
28848;SDS011;15981;43.292;-2.888;2023-03-01T15:49:02;65.43;;;36.08;;
28848;SDS011;15981;43.292;-2.888;2023-03-01T15:51:31;62.67;;;36.72;;
28848;SDS011;15981;43.292;-2.888;2023-03-01T15:53:58;56.47;;;33.53;;
28848;SDS011;15981;43.292;-2.888;2023-03-01T15:56:24;57.20;;;34.03;;
28848;SDS011;15981;43.292;-2.888;2023-03-01T15:58:50;51.25;;;31.02;;
28848;SDS011;15981;43.292;-2.888;2023-03-01T16:01:16;54.63;;;31.75;;
28848;SDS011;15981;43.292;-2.888;2023-03-01T16:03:43;55.13;;;31.33;;